sensor_id;sensor_type;location;lat;lon;timestamp;P1;durP1;ratioP1;P2;durP2;ratioP2
16994;SDS011;8614;48.522;9.206;2023-01-16T03:01:45;9.43;;;8.83;;
16994;SDS011;8614;48.522;9.206;2023-01-16T03:07:15;9.53;;;8.83;;
16994;SDS011;8614;48.522;9.206;2023-01-16T03:10:06;8.97;;;8.30;;
16994;SDS011;8614;48.522;9.206;2023-01-16T03:12:58;9.53;;;8.80;;
16994;SDS011;8614;48.522;9.206;2023-01-16T03:15:34;8.63;;;8.13;;
16994;SDS011;8614;48.522;9.206;2023-01-16T03:18:15;9.70;;;8.77;;
16994;SDS011;8614;48.522;9.206;2023-01-16T03:20:50;9.17;;;8.37;;
16994;SDS011;8614;48.522;9.206;2023-01-16T03:23:23;8.70;;;8.10;;
16994;SDS011;8614;48.522;9.206;2023-01-16T03:25:58;8.70;;;8.20;;
16994;SDS011;8614;48.522;9.206;2023-01-16T03:28:29;9.67;;;8.80;;
16994;SDS011;8614;48.522;9.206;2023-01-16T03:31:04;9.77;;;9.00;;
16994;SDS011;8614;48.522;9.206;2023-01-16T03:33:41;9.27;;;8.47;;
16994;SDS011;8614;48.522;9.206;2023-01-16T03:36:13;9.20;;;8.63;;
16994;SDS011;8614;48.522;9.206;2023-01-16T03:38:43;9.73;;;8.93;;
16994;SDS011;8614;48.522;9.206;2023-01-16T03:41:14;8.80;;;8.10;;
16994;SDS011;8614;48.522;9.206;2023-01-16T03:43:44;8.93;;;8.13;;
16994;SDS011;8614;48.522;9.206;2023-01-16T03:46:15;8.73;;;8.00;;
16994;SDS011;8614;48.522;9.206;2023-01-16T03:48:47;9.10;;;8.40;;
16994;SDS011;8614;48.522;9.206;2023-01-16T03:51:26;8.90;;;8.40;;
16994;SDS011;8614;48.522;9.206;2023-01-16T03:53:57;8.97;;;8.13;;
16994;SDS011;8614;48.522;9.206;2023-01-16T03:56:29;9.40;;;8.50;;
16994;SDS011;8614;48.522;9.206;2023-01-16T03:59:00;8.80;;;8.20;;
16994;SDS011;8614;48.522;9.206;2023-01-16T04:01:31;8.67;;;8.17;;
16994;SDS011;8614;48.522;9.206;2023-01-16T04:04:05;9.43;;;8.83;;
16994;SDS011;8614;48.522;9.206;2023-01-16T04:06:35;8.93;;;8.40;;
16994;SDS011;8614;48.522;9.206;2023-01-16T04:09:08;9.60;;;8.80;;
16994;SDS011;8614;48.522;9.206;2023-01-16T04:11:38;9.50;;;8.87;;
16994;SDS011;8614;48.522;9.206;2023-01-16T04:14:06;9.83;;;9.03;;
16994;SDS011;8614;48.522;9.206;2023-01-16T04:16:35;9.60;;;9.10;;
16994;SDS011;8614;48.522;9.206;2023-01-16T04:19:04;9.70;;;9.10;;
16994;SDS011;8614;48.522;9.206;2023-01-16T04:21:33;9.57;;;8.90;;
16994;SDS011;8614;48.522;9.206;2023-01-16T04:23:59;9.33;;;8.83;;
16994;SDS011;8614;48.522;9.206;2023-01-16T04:26:27;10.40;;;9.50;;
16994;SDS011;8614;48.522;9.206;2023-01-16T04:28:54;9.40;;;8.90;;
16994;SDS011;8614;48.522;9.206;2023-01-16T04:31:21;9.50;;;8.90;;
16994;SDS011;8614;48.522;9.206;2023-01-16T04:33:49;9.13;;;8.60;;
16994;SDS011;8614;48.522;9.206;2023-01-16T04:36:17;9.07;;;8.57;;
16994;SDS011;8614;48.522;9.206;2023-01-16T04:38:44;9.70;;;9.10;;
16994;SDS011;8614;48.522;9.206;2023-01-16T04:41:11;9.93;;;9.33;;
16994;SDS011;8614;48.522;9.206;2023-01-16T04:43:38;9.57;;;8.93;;
16994;SDS011;8614;48.522;9.206;2023-01-16T04:46:05;9.70;;;9.10;;
16994;SDS011;8614;48.522;9.206;2023-01-16T04:48:32;9.37;;;8.87;;
16994;SDS011;8614;48.522;9.206;2023-01-16T04:50:58;10.30;;;9.70;;
16994;SDS011;8614;48.522;9.206;2023-01-16T04:53:26;9.70;;;9.10;;
16994;SDS011;8614;48.522;9.206;2023-01-16T04:55:53;9.60;;;9.00;;
16994;SDS011;8614;48.522;9.206;2023-01-16T04:58:20;9.90;;;9.30;;
16994;SDS011;8614;48.522;9.206;2023-01-16T05:00:47;10.77;;;9.87;;
16994;SDS011;8614;48.522;9.206;2023-01-16T05:03:14;9.93;;;9.20;;
16994;SDS011;8614;48.522;9.206;2023-01-16T05:05:41;9.97;;;9.17;;
16994;SDS011;8614;48.522;9.206;2023-01-16T05:08:08;10.60;;;9.90;;
16994;SDS011;8614;48.522;9.206;2023-01-16T05:10:53;9.60;;;9.10;;
16994;SDS011;8614;48.522;9.206;2023-01-16T05:13:21;9.90;;;9.30;;
16994;SDS011;8614;48.522;9.206;2023-01-16T05:15:48;10.27;;;9.60;;
16994;SDS011;8614;48.522;9.206;2023-01-16T05:18:15;10.50;;;9.80;;
16994;SDS011;8614;48.522;9.206;2023-01-16T05:20:42;10.37;;;9.67;;
16994;SDS011;8614;48.522;9.206;2023-01-16T05:23:09;10.13;;;9.43;;
16994;SDS011;8614;48.522;9.206;2023-01-16T05:25:36;10.40;;;9.57;;
16994;SDS011;8614;48.522;9.206;2023-01-16T05:28:05;10.00;;;9.40;;
16994;SDS011;8614;48.522;9.206;2023-01-16T05:30:32;10.73;;;10.03;;
16994;SDS011;8614;48.522;9.206;2023-01-16T05:32:59;10.20;;;9.47;;
16994;SDS011;8614;48.522;9.206;2023-01-16T05:35:26;11.40;;;10.33;;
16994;SDS011;8614;48.522;9.206;2023-01-16T05:37:53;10.70;;;10.00;;
16994;SDS011;8614;48.522;9.206;2023-01-16T05:40:20;11.07;;;10.27;;
16994;SDS011;8614;48.522;9.206;2023-01-16T05:42:47;10.73;;;10.13;;
16994;SDS011;8614;48.522;9.206;2023-01-16T05:45:15;10.77;;;9.97;;
16994;SDS011;8614;48.522;9.206;2023-01-16T05:47:43;12.50;;;10.40;;
16994;SDS011;8614;48.522;9.206;2023-01-16T05:50:10;10.70;;;10.00;;
16994;SDS011;8614;48.522;9.206;2023-01-16T05:52:37;11.30;;;10.60;;
16994;SDS011;8614;48.522;9.206;2023-01-16T05:55:04;11.03;;;10.37;;
16994;SDS011;8614;48.522;9.206;2023-01-16T05:57:31;11.07;;;10.30;;
16994;SDS011;8614;48.522;9.206;2023-01-16T05:59:58;10.97;;;10.17;;
16994;SDS011;8614;48.522;9.206;2023-01-16T06:02:26;11.00;;;10.40;;
16994;SDS011;8614;48.522;9.206;2023-01-16T06:04:53;11.17;;;10.27;;
16994;SDS011;8614;48.522;9.206;2023-01-16T06:07:20;10.93;;;10.13;;
16994;SDS011;8614;48.522;9.206;2023-01-16T06:09:47;10.70;;;9.90;;
16994;SDS011;8614;48.522;9.206;2023-01-16T06:12:15;10.60;;;10.00;;
16994;SDS011;8614;48.522;9.206;2023-01-16T06:14:43;11.00;;;10.20;;
16994;SDS011;8614;48.522;9.206;2023-01-16T06:17:10;10.93;;;10.17;;
16994;SDS011;8614;48.522;9.206;2023-01-16T06:19:40;11.20;;;10.37;;
16994;SDS011;8614;48.522;9.206;2023-01-16T06:22:07;10.80;;;10.13;;
16994;SDS011;8614;48.522;9.206;2023-01-16T06:24:34;11.10;;;10.40;;
16994;SDS011;8614;48.522;9.206;2023-01-16T06:27:01;10.43;;;9.63;;
16994;SDS011;8614;48.522;9.206;2023-01-16T06:29:27;10.63;;;9.97;;
16994;SDS011;8614;48.522;9.206;2023-01-16T06:31:54;10.87;;;10.27;;
16994;SDS011;8614;48.522;9.206;2023-01-16T06:34:21;11.70;;;10.90;;
16994;SDS011;8614;48.522;9.206;2023-01-16T06:36:50;11.70;;;10.93;;
16994;SDS011;8614;48.522;9.206;2023-01-16T06:39:17;12.30;;;11.40;;
16994;SDS011;8614;48.522;9.206;2023-01-16T06:41:43;12.00;;;11.20;;
16994;SDS011;8614;48.522;9.206;2023-01-16T06:44:10;12.00;;;11.20;;
16994;SDS011;8614;48.522;9.206;2023-01-16T06:46:37;12.70;;;11.83;;
16994;SDS011;8614;48.522;9.206;2023-01-16T06:49:04;12.10;;;11.30;;
16994;SDS011;8614;48.522;9.206;2023-01-16T06:51:31;12.27;;;11.40;;
16994;SDS011;8614;48.522;9.206;2023-01-16T06:53:59;12.20;;;11.40;;
16994;SDS011;8614;48.522;9.206;2023-01-16T06:56:28;11.90;;;11.20;;
16994;SDS011;8614;48.522;9.206;2023-01-16T06:58:55;11.73;;;11.03;;
16994;SDS011;8614;48.522;9.206;2023-01-16T07:01:21;12.30;;;11.20;;
16994;SDS011;8614;48.522;9.206;2023-01-16T07:03:48;11.20;;;10.30;;
16994;SDS011;8614;48.522;9.206;2023-01-16T07:06:15;11.50;;;10.80;;
16994;SDS011;8614;48.522;9.206;2023-01-16T07:08:42;12.07;;;11.07;;
16994;SDS011;8614;48.522;9.206;2023-01-16T07:11:11;11.40;;;10.60;;
16994;SDS011;8614;48.522;9.206;2023-01-16T07:13:37;10.90;;;10.20;;
16994;SDS011;8614;48.522;9.206;2023-01-16T07:16:04;10.40;;;9.80;;
16994;SDS011;8614;48.522;9.206;2023-01-16T07:18:49;10.70;;;10.00;;
16994;SDS011;8614;48.522;9.206;2023-01-16T07:21:32;10.73;;;10.03;;
16994;SDS011;8614;48.522;9.206;2023-01-16T07:24:17;10.77;;;10.17;;
16994;SDS011;8614;48.522;9.206;2023-01-16T07:26:49;9.87;;;9.33;;
16994;SDS011;8614;48.522;9.206;2023-01-16T07:29:22;10.80;;;9.90;;
16994;SDS011;8614;48.522;9.206;2023-01-16T07:31:50;10.27;;;9.57;;
16994;SDS011;8614;48.522;9.206;2023-01-16T07:34:17;9.70;;;9.00;;
16994;SDS011;8614;48.522;9.206;2023-01-16T07:36:43;11.10;;;10.30;;
16994;SDS011;8614;48.522;9.206;2023-01-16T07:39:10;9.67;;;9.17;;
16994;SDS011;8614;48.522;9.206;2023-01-16T07:41:37;10.00;;;9.40;;
16994;SDS011;8614;48.522;9.206;2023-01-16T07:44:07;10.30;;;9.60;;
16994;SDS011;8614;48.522;9.206;2023-01-16T07:46:35;9.90;;;9.33;;
16994;SDS011;8614;48.522;9.206;2023-01-16T07:49:02;10.30;;;9.70;;
16994;SDS011;8614;48.522;9.206;2023-01-16T07:51:29;10.23;;;9.53;;
16994;SDS011;8614;48.522;9.206;2023-01-16T07:53:55;10.03;;;9.33;;
16994;SDS011;8614;48.522;9.206;2023-01-16T07:56:22;9.60;;;9.00;;
16994;SDS011;8614;48.522;9.206;2023-01-16T07:58:49;9.70;;;9.10;;
16994;SDS011;8614;48.522;9.206;2023-01-16T08:01:20;9.70;;;9.20;;
16994;SDS011;8614;48.522;9.206;2023-01-16T08:03:47;9.80;;;9.20;;
16994;SDS011;8614;48.522;9.206;2023-01-16T08:06:14;9.80;;;9.30;;
16994;SDS011;8614;48.522;9.206;2023-01-16T08:08:41;10.67;;;9.87;;
16994;SDS011;8614;48.522;9.206;2023-01-16T08:11:08;9.80;;;9.20;;
16994;SDS011;8614;48.522;9.206;2023-01-16T08:13:49;10.27;;;9.60;;
16994;SDS011;8614;48.522;9.206;2023-01-16T08:16:16;10.43;;;9.73;;
16994;SDS011;8614;48.522;9.206;2023-01-16T08:18:44;9.73;;;9.20;;
16994;SDS011;8614;48.522;9.206;2023-01-16T08:21:13;10.20;;;9.50;;
16994;SDS011;8614;48.522;9.206;2023-01-16T08:23:42;10.33;;;9.53;;
16994;SDS011;8614;48.522;9.206;2023-01-16T08:26:09;9.77;;;9.10;;
16994;SDS011;8614;48.522;9.206;2023-01-16T08:28:37;10.40;;;9.40;;
16994;SDS011;8614;48.522;9.206;2023-01-16T08:31:04;9.70;;;9.20;;
16994;SDS011;8614;48.522;9.206;2023-01-16T08:33:33;10.00;;;9.40;;
16994;SDS011;8614;48.522;9.206;2023-01-16T08:36:02;10.37;;;9.40;;
16994;SDS011;8614;48.522;9.206;2023-01-16T08:38:29;9.70;;;9.10;;
16994;SDS011;8614;48.522;9.206;2023-01-16T08:40:56;10.50;;;9.77;;
16994;SDS011;8614;48.522;9.206;2023-01-16T08:43:23;10.10;;;9.40;;
16994;SDS011;8614;48.522;9.206;2023-01-16T08:46:10;10.17;;;9.47;;
16994;SDS011;8614;48.522;9.206;2023-01-16T08:49:02;10.30;;;9.37;;
16994;SDS011;8614;48.522;9.206;2023-01-16T08:51:48;10.00;;;9.30;;
16994;SDS011;8614;48.522;9.206;2023-01-16T08:54:15;10.00;;;9.40;;
16994;SDS011;8614;48.522;9.206;2023-01-16T08:56:42;9.67;;;9.07;;
16994;SDS011;8614;48.522;9.206;2023-01-16T08:59:09;9.80;;;9.20;;
16994;SDS011;8614;48.522;9.206;2023-01-16T09:01:36;9.10;;;8.60;;
16994;SDS011;8614;48.522;9.206;2023-01-16T09:04:04;9.67;;;9.03;;
16994;SDS011;8614;48.522;9.206;2023-01-16T09:06:31;9.80;;;9.20;;
16994;SDS011;8614;48.522;9.206;2023-01-16T09:09:03;9.77;;;9.17;;
16994;SDS011;8614;48.522;9.206;2023-01-16T09:11:30;9.37;;;8.87;;
16994;SDS011;8614;48.522;9.206;2023-01-16T09:14:15;9.30;;;8.80;;
16994;SDS011;8614;48.522;9.206;2023-01-16T09:16:42;9.20;;;8.70;;
16994;SDS011;8614;48.522;9.206;2023-01-16T09:19:09;9.77;;;9.10;;
16994;SDS011;8614;48.522;9.206;2023-01-16T09:21:35;9.47;;;8.87;;
16994;SDS011;8614;48.522;9.206;2023-01-16T09:24:04;9.50;;;9.00;;
16994;SDS011;8614;48.522;9.206;2023-01-16T09:26:32;9.43;;;8.80;;
16994;SDS011;8614;48.522;9.206;2023-01-16T09:28:59;9.20;;;8.67;;
16994;SDS011;8614;48.522;9.206;2023-01-16T09:31:26;9.80;;;8.87;;
16994;SDS011;8614;48.522;9.206;2023-01-16T09:33:52;9.40;;;8.80;;
16994;SDS011;8614;48.522;9.206;2023-01-16T09:36:19;9.67;;;9.07;;
16994;SDS011;8614;48.522;9.206;2023-01-16T09:38:46;9.53;;;8.97;;
16994;SDS011;8614;48.522;9.206;2023-01-16T09:41:15;9.60;;;9.00;;
16994;SDS011;8614;48.522;9.206;2023-01-16T09:44:04;9.37;;;8.87;;
16994;SDS011;8614;48.522;9.206;2023-01-16T09:46:35;9.40;;;8.80;;
16994;SDS011;8614;48.522;9.206;2023-01-16T09:49:06;8.87;;;8.37;;
16994;SDS011;8614;48.522;9.206;2023-01-16T09:51:44;9.50;;;9.00;;
16994;SDS011;8614;48.522;9.206;2023-01-16T09:54:49;9.10;;;8.60;;
16994;SDS011;8614;48.522;9.206;2023-01-16T09:57:39;9.40;;;8.80;;
16994;SDS011;8614;48.522;9.206;2023-01-16T10:00:26;9.60;;;9.03;;
16994;SDS011;8614;48.522;9.206;2023-01-16T10:02:56;9.30;;;8.80;;
16994;SDS011;8614;48.522;9.206;2023-01-16T10:05:24;9.37;;;8.77;;
16994;SDS011;8614;48.522;9.206;2023-01-16T10:07:57;9.70;;;9.10;;
16994;SDS011;8614;48.522;9.206;2023-01-16T10:10:40;9.47;;;8.80;;
16994;SDS011;8614;48.522;9.206;2023-01-16T10:13:15;9.60;;;8.93;;
16994;SDS011;8614;48.522;9.206;2023-01-16T10:15:56;9.07;;;8.57;;
16994;SDS011;8614;48.522;9.206;2023-01-16T10:18:35;9.20;;;8.50;;
16994;SDS011;8614;48.522;9.206;2023-01-16T10:21:20;9.53;;;8.93;;
16994;SDS011;8614;48.522;9.206;2023-01-16T10:24:09;9.37;;;8.77;;
16994;SDS011;8614;48.522;9.206;2023-01-16T10:26:46;8.90;;;8.40;;
16994;SDS011;8614;48.522;9.206;2023-01-16T10:29:24;9.40;;;8.80;;
16994;SDS011;8614;48.522;9.206;2023-01-16T10:31:57;9.10;;;8.60;;
16994;SDS011;8614;48.522;9.206;2023-01-16T10:34:29;9.27;;;8.67;;
16994;SDS011;8614;48.522;9.206;2023-01-16T10:36:59;9.10;;;8.40;;
16994;SDS011;8614;48.522;9.206;2023-01-16T10:39:30;8.70;;;8.20;;
16994;SDS011;8614;48.522;9.206;2023-01-16T10:41:59;8.80;;;8.30;;
16994;SDS011;8614;48.522;9.206;2023-01-16T10:44:56;8.70;;;8.20;;
16994;SDS011;8614;48.522;9.206;2023-01-16T10:47:44;9.07;;;8.57;;
16994;SDS011;8614;48.522;9.206;2023-01-16T10:50:29;8.73;;;8.23;;
16994;SDS011;8614;48.522;9.206;2023-01-16T10:52:56;8.53;;;8.10;;
16994;SDS011;8614;48.522;9.206;2023-01-16T10:55:23;8.67;;;8.07;;
16994;SDS011;8614;48.522;9.206;2023-01-16T10:57:51;8.50;;;8.10;;
16994;SDS011;8614;48.522;9.206;2023-01-16T11:00:21;9.10;;;8.60;;
16994;SDS011;8614;48.522;9.206;2023-01-16T11:02:54;8.57;;;8.07;;
16994;SDS011;8614;48.522;9.206;2023-01-16T11:05:25;8.90;;;8.20;;
16994;SDS011;8614;48.522;9.206;2023-01-16T11:07:54;8.70;;;8.20;;
16994;SDS011;8614;48.522;9.206;2023-01-16T11:10:22;8.70;;;8.20;;
16994;SDS011;8614;48.522;9.206;2023-01-16T11:12:49;8.63;;;8.13;;
16994;SDS011;8614;48.522;9.206;2023-01-16T11:15:36;8.50;;;8.10;;
16994;SDS011;8614;48.522;9.206;2023-01-16T11:18:21;8.70;;;8.20;;
16994;SDS011;8614;48.522;9.206;2023-01-16T11:20:57;9.37;;;8.67;;
16994;SDS011;8614;48.522;9.206;2023-01-16T11:23:26;8.90;;;8.40;;
16994;SDS011;8614;48.522;9.206;2023-01-16T11:25:59;9.20;;;8.70;;
16994;SDS011;8614;48.522;9.206;2023-01-16T11:28:27;8.80;;;8.30;;
16994;SDS011;8614;48.522;9.206;2023-01-16T11:30:57;9.13;;;8.53;;
16994;SDS011;8614;48.522;9.206;2023-01-16T11:33:27;9.00;;;8.40;;
16994;SDS011;8614;48.522;9.206;2023-01-16T11:36:00;8.63;;;8.17;;
16994;SDS011;8614;48.522;9.206;2023-01-16T11:38:30;9.00;;;8.50;;
16994;SDS011;8614;48.522;9.206;2023-01-16T11:41:00;8.53;;;8.07;;
16994;SDS011;8614;48.522;9.206;2023-01-16T11:43:28;8.70;;;8.20;;
16994;SDS011;8614;48.522;9.206;2023-01-16T11:46:25;8.50;;;8.10;;
16994;SDS011;8614;48.522;9.206;2023-01-16T11:48:58;9.10;;;8.30;;
16994;SDS011;8614;48.522;9.206;2023-01-16T11:51:27;8.90;;;8.40;;
16994;SDS011;8614;48.522;9.206;2023-01-16T11:53:55;8.90;;;8.40;;
16994;SDS011;8614;48.522;9.206;2023-01-16T11:56:36;9.17;;;8.67;;
16994;SDS011;8614;48.522;9.206;2023-01-16T11:59:13;9.20;;;8.70;;
16994;SDS011;8614;48.522;9.206;2023-01-16T12:01:57;9.83;;;9.13;;
16994;SDS011;8614;48.522;9.206;2023-01-16T12:04:45;9.87;;;9.17;;
16994;SDS011;8614;48.522;9.206;2023-01-16T12:07:32;9.60;;;9.10;;
16994;SDS011;8614;48.522;9.206;2023-01-16T12:13:04;9.90;;;9.30;;
16994;SDS011;8614;48.522;9.206;2023-01-16T12:15:54;9.93;;;9.30;;
16994;SDS011;8614;48.522;9.206;2023-01-16T12:18:32;9.33;;;8.83;;
16994;SDS011;8614;48.522;9.206;2023-01-16T12:21:08;9.63;;;9.13;;
16994;SDS011;8614;48.522;9.206;2023-01-16T12:23:52;9.50;;;8.90;;
16994;SDS011;8614;48.522;9.206;2023-01-16T12:26:30;9.53;;;9.03;;
16994;SDS011;8614;48.522;9.206;2023-01-16T12:29:06;9.67;;;8.97;;
16994;SDS011;8614;48.522;9.206;2023-01-16T12:31:48;9.50;;;8.90;;
16994;SDS011;8614;48.522;9.206;2023-01-16T12:37:22;9.50;;;9.00;;
16994;SDS011;8614;48.522;9.206;2023-01-16T12:40:05;9.90;;;9.30;;
16994;SDS011;8614;48.522;9.206;2023-01-16T12:42:46;10.00;;;9.30;;
16994;SDS011;8614;48.522;9.206;2023-01-16T12:45:38;9.20;;;8.70;;
16994;SDS011;8614;48.522;9.206;2023-01-16T12:48:21;9.20;;;8.60;;
16994;SDS011;8614;48.522;9.206;2023-01-16T12:51:20;9.00;;;8.50;;
16994;SDS011;8614;48.522;9.206;2023-01-16T12:57:14;8.97;;;8.47;;
16994;SDS011;8614;48.522;9.206;2023-01-16T12:59:53;9.33;;;8.53;;
16994;SDS011;8614;48.522;9.206;2023-01-16T13:02:23;9.20;;;8.70;;
16994;SDS011;8614;48.522;9.206;2023-01-16T13:05:00;9.20;;;8.70;;
16994;SDS011;8614;48.522;9.206;2023-01-16T13:07:31;9.60;;;9.00;;
16994;SDS011;8614;48.522;9.206;2023-01-16T13:10:01;9.17;;;8.67;;
16994;SDS011;8614;48.522;9.206;2023-01-16T13:12:54;9.30;;;8.80;;
16994;SDS011;8614;48.522;9.206;2023-01-16T13:15:41;9.70;;;9.10;;
16994;SDS011;8614;48.522;9.206;2023-01-16T13:18:14;9.37;;;8.70;;
16994;SDS011;8614;48.522;9.206;2023-01-16T13:20:45;9.47;;;8.83;;
16994;SDS011;8614;48.522;9.206;2023-01-16T13:23:19;9.07;;;8.57;;
16994;SDS011;8614;48.522;9.206;2023-01-16T13:25:50;9.30;;;8.80;;
16994;SDS011;8614;48.522;9.206;2023-01-16T13:28:24;9.03;;;8.33;;
16994;SDS011;8614;48.522;9.206;2023-01-16T13:30:58;8.87;;;8.37;;
16994;SDS011;8614;48.522;9.206;2023-01-16T13:33:28;9.23;;;8.43;;
16994;SDS011;8614;48.522;9.206;2023-01-16T13:36:00;8.30;;;7.90;;
16994;SDS011;8614;48.522;9.206;2023-01-16T13:38:43;8.60;;;8.10;;
16994;SDS011;8614;48.522;9.206;2023-01-16T13:41:20;8.50;;;8.00;;
16994;SDS011;8614;48.522;9.206;2023-01-16T13:43:50;8.60;;;8.10;;
16994;SDS011;8614;48.522;9.206;2023-01-16T13:46:38;8.63;;;8.17;;
16994;SDS011;8614;48.522;9.206;2023-01-16T13:49:06;8.77;;;8.30;;
16994;SDS011;8614;48.522;9.206;2023-01-16T13:51:42;8.93;;;8.43;;
16994;SDS011;8614;48.522;9.206;2023-01-16T13:54:13;9.00;;;8.50;;
16994;SDS011;8614;48.522;9.206;2023-01-16T13:56:47;8.77;;;8.27;;
16994;SDS011;8614;48.522;9.206;2023-01-16T14:02:17;8.93;;;8.43;;
16994;SDS011;8614;48.522;9.206;2023-01-16T14:07:50;8.30;;;7.90;;
16994;SDS011;8614;48.522;9.206;2023-01-16T14:10:51;8.90;;;8.20;;
16994;SDS011;8614;48.522;9.206;2023-01-16T14:13:32;8.80;;;8.30;;
16994;SDS011;8614;48.522;9.206;2023-01-16T14:19:00;8.90;;;8.40;;
16994;SDS011;8614;48.522;9.206;2023-01-16T14:21:29;9.37;;;8.47;;
16994;SDS011;8614;48.522;9.206;2023-01-16T14:24:12;8.77;;;8.27;;
16994;SDS011;8614;48.522;9.206;2023-01-16T14:26:44;8.80;;;8.27;;
16994;SDS011;8614;48.522;9.206;2023-01-16T14:29:16;9.10;;;8.43;;
16994;SDS011;8614;48.522;9.206;2023-01-16T14:31:50;8.80;;;8.30;;
16994;SDS011;8614;48.522;9.206;2023-01-16T14:34:20;8.60;;;8.00;;
16994;SDS011;8614;48.522;9.206;2023-01-16T14:36:49;8.57;;;8.07;;
16994;SDS011;8614;48.522;9.206;2023-01-16T14:39:25;8.30;;;7.90;;
16994;SDS011;8614;48.522;9.206;2023-01-16T14:41:56;8.40;;;7.90;;
16994;SDS011;8614;48.522;9.206;2023-01-16T14:44:59;8.47;;;7.80;;
16994;SDS011;8614;48.522;9.206;2023-01-16T14:48:08;8.73;;;8.03;;
16994;SDS011;8614;48.522;9.206;2023-01-16T14:50:55;8.30;;;7.80;;
16994;SDS011;8614;48.522;9.206;2023-01-16T14:53:43;8.70;;;8.20;;
16994;SDS011;8614;48.522;9.206;2023-01-16T14:56:30;8.53;;;8.03;;
16994;SDS011;8614;48.522;9.206;2023-01-16T14:59:03;8.83;;;8.27;;
16994;SDS011;8614;48.522;9.206;2023-01-16T15:01:32;8.50;;;8.10;;
16994;SDS011;8614;48.522;9.206;2023-01-16T15:04:22;8.70;;;8.10;;
16994;SDS011;8614;48.522;9.206;2023-01-16T15:06:55;8.70;;;8.20;;
16994;SDS011;8614;48.522;9.206;2023-01-16T15:09:24;9.60;;;9.00;;
16994;SDS011;8614;48.522;9.206;2023-01-16T15:11:56;9.30;;;8.80;;
16994;SDS011;8614;48.522;9.206;2023-01-16T15:14:26;9.37;;;8.77;;
16994;SDS011;8614;48.522;9.206;2023-01-16T15:16:57;9.20;;;8.70;;
16994;SDS011;8614;48.522;9.206;2023-01-16T15:20:01;8.93;;;8.43;;
16994;SDS011;8614;48.522;9.206;2023-01-16T15:22:57;9.27;;;8.67;;
16994;SDS011;8614;48.522;9.206;2023-01-16T15:25:29;9.53;;;8.90;;
16994;SDS011;8614;48.522;9.206;2023-01-16T15:28:21;9.40;;;8.90;;
16994;SDS011;8614;48.522;9.206;2023-01-16T15:30:55;9.30;;;8.60;;
16994;SDS011;8614;48.522;9.206;2023-01-16T15:33:26;10.00;;;9.40;;
16994;SDS011;8614;48.522;9.206;2023-01-16T15:36:16;9.77;;;9.07;;
16994;SDS011;8614;48.522;9.206;2023-01-16T15:38:49;9.27;;;8.77;;
16994;SDS011;8614;48.522;9.206;2023-01-16T15:41:19;9.30;;;8.70;;
16994;SDS011;8614;48.522;9.206;2023-01-16T15:44:12;9.47;;;8.90;;
16994;SDS011;8614;48.522;9.206;2023-01-16T15:47:17;9.30;;;8.60;;
16994;SDS011;8614;48.522;9.206;2023-01-16T15:50:13;9.03;;;8.53;;
16994;SDS011;8614;48.522;9.206;2023-01-16T15:52:47;9.53;;;9.03;;
16994;SDS011;8614;48.522;9.206;2023-01-16T15:55:15;9.77;;;9.00;;
16994;SDS011;8614;48.522;9.206;2023-01-16T15:57:45;9.50;;;8.90;;
16994;SDS011;8614;48.522;9.206;2023-01-16T16:00:28;9.63;;;9.13;;
16994;SDS011;8614;48.522;9.206;2023-01-16T16:02:59;9.17;;;8.60;;
16994;SDS011;8614;48.522;9.206;2023-01-16T16:05:27;9.70;;;9.00;;
16994;SDS011;8614;48.522;9.206;2023-01-16T16:07:55;9.47;;;8.90;;
16994;SDS011;8614;48.522;9.206;2023-01-16T16:10:23;9.03;;;8.53;;
16994;SDS011;8614;48.522;9.206;2023-01-16T16:13:10;9.80;;;9.30;;
16994;SDS011;8614;48.522;9.206;2023-01-16T16:15:52;9.40;;;8.90;;
16994;SDS011;8614;48.522;9.206;2023-01-16T16:18:38;9.90;;;9.20;;
16994;SDS011;8614;48.522;9.206;2023-01-16T16:21:05;10.67;;;9.93;;
16994;SDS011;8614;48.522;9.206;2023-01-16T16:23:38;9.90;;;9.30;;
16994;SDS011;8614;48.522;9.206;2023-01-16T16:26:06;10.03;;;9.43;;
16994;SDS011;8614;48.522;9.206;2023-01-16T16:28:40;9.60;;;9.10;;
16994;SDS011;8614;48.522;9.206;2023-01-16T16:31:12;9.70;;;9.20;;
16994;SDS011;8614;48.522;9.206;2023-01-16T16:33:41;9.80;;;9.20;;
16994;SDS011;8614;48.522;9.206;2023-01-16T16:36:17;9.63;;;9.13;;
16994;SDS011;8614;48.522;9.206;2023-01-16T16:38:45;10.03;;;9.40;;
16994;SDS011;8614;48.522;9.206;2023-01-16T16:44:33;10.57;;;9.80;;
16994;SDS011;8614;48.522;9.206;2023-01-16T16:47:14;10.30;;;9.70;;
16994;SDS011;8614;48.522;9.206;2023-01-16T16:49:50;9.93;;;9.33;;
16994;SDS011;8614;48.522;9.206;2023-01-16T16:52:21;10.33;;;9.73;;
16994;SDS011;8614;48.522;9.206;2023-01-16T16:55:02;10.40;;;9.80;;
16994;SDS011;8614;48.522;9.206;2023-01-16T16:57:33;10.20;;;9.60;;
16994;SDS011;8614;48.522;9.206;2023-01-16T17:00:09;9.93;;;9.43;;
16994;SDS011;8614;48.522;9.206;2023-01-16T17:02:42;9.30;;;8.80;;
16994;SDS011;8614;48.522;9.206;2023-01-16T17:05:12;8.93;;;8.43;;
16994;SDS011;8614;48.522;9.206;2023-01-16T17:07:43;9.23;;;8.73;;
16994;SDS011;8614;48.522;9.206;2023-01-16T17:10:11;9.10;;;8.60;;
16994;SDS011;8614;48.522;9.206;2023-01-16T17:12:39;9.00;;;8.50;;
16994;SDS011;8614;48.522;9.206;2023-01-16T17:15:06;9.33;;;8.83;;
16994;SDS011;8614;48.522;9.206;2023-01-16T17:17:38;9.57;;;9.07;;
16994;SDS011;8614;48.522;9.206;2023-01-16T17:22:44;9.70;;;9.20;;
16994;SDS011;8614;48.522;9.206;2023-01-16T17:25:13;9.40;;;8.90;;
16994;SDS011;8614;48.522;9.206;2023-01-16T17:27:46;9.40;;;8.90;;
16994;SDS011;8614;48.522;9.206;2023-01-16T17:30:14;9.33;;;8.83;;
16994;SDS011;8614;48.522;9.206;2023-01-16T17:32:41;9.03;;;8.57;;
16994;SDS011;8614;48.522;9.206;2023-01-16T17:35:12;9.37;;;8.70;;
16994;SDS011;8614;48.522;9.206;2023-01-16T17:37:41;8.93;;;8.50;;
16994;SDS011;8614;48.522;9.206;2023-01-16T17:40:09;9.10;;;8.60;;
16994;SDS011;8614;48.522;9.206;2023-01-16T17:42:36;9.57;;;9.07;;
16994;SDS011;8614;48.522;9.206;2023-01-16T17:45:27;9.30;;;8.80;;
16994;SDS011;8614;48.522;9.206;2023-01-16T17:48:13;9.40;;;8.90;;
16994;SDS011;8614;48.522;9.206;2023-01-16T17:50:40;9.30;;;8.80;;
16994;SDS011;8614;48.522;9.206;2023-01-16T17:53:09;9.10;;;8.60;;
16994;SDS011;8614;48.522;9.206;2023-01-16T17:55:38;9.43;;;8.87;;
16994;SDS011;8614;48.522;9.206;2023-01-16T17:58:22;9.23;;;8.73;;
16994;SDS011;8614;48.522;9.206;2023-01-16T18:01:04;9.20;;;8.70;;
16994;SDS011;8614;48.522;9.206;2023-01-16T18:03:32;8.70;;;8.20;;
16994;SDS011;8614;48.522;9.206;2023-01-16T18:06:00;9.00;;;8.20;;
16994;SDS011;8614;48.522;9.206;2023-01-16T18:08:28;8.50;;;8.00;;
16994;SDS011;8614;48.522;9.206;2023-01-16T18:10:56;9.23;;;8.60;;
16994;SDS011;8614;48.522;9.206;2023-01-16T18:13:48;8.80;;;8.30;;
16994;SDS011;8614;48.522;9.206;2023-01-16T18:16:34;8.30;;;7.90;;
16994;SDS011;8614;48.522;9.206;2023-01-16T18:19:18;8.57;;;8.07;;
16994;SDS011;8614;48.522;9.206;2023-01-16T18:21:45;9.67;;;9.07;;
16994;SDS011;8614;48.522;9.206;2023-01-16T18:24:33;9.10;;;8.60;;
16994;SDS011;8614;48.522;9.206;2023-01-16T18:27:02;8.90;;;8.40;;
16994;SDS011;8614;48.522;9.206;2023-01-16T18:29:30;9.20;;;8.50;;
16994;SDS011;8614;48.522;9.206;2023-01-16T18:31:57;9.60;;;9.00;;
16994;SDS011;8614;48.522;9.206;2023-01-16T18:34:41;9.30;;;8.60;;
16994;SDS011;8614;48.522;9.206;2023-01-16T18:37:08;9.33;;;8.73;;
16994;SDS011;8614;48.522;9.206;2023-01-16T18:39:36;9.83;;;9.23;;
16994;SDS011;8614;48.522;9.206;2023-01-16T18:42:20;9.10;;;8.50;;
16994;SDS011;8614;48.522;9.206;2023-01-16T18:45:22;9.47;;;8.80;;
16994;SDS011;8614;48.522;9.206;2023-01-16T18:48:08;9.00;;;8.50;;
16994;SDS011;8614;48.522;9.206;2023-01-16T18:50:53;9.17;;;8.63;;
16994;SDS011;8614;48.522;9.206;2023-01-16T18:53:43;10.13;;;9.53;;
16994;SDS011;8614;48.522;9.206;2023-01-16T18:56:30;10.40;;;9.60;;
16994;SDS011;8614;48.522;9.206;2023-01-16T18:59:17;10.33;;;9.63;;
16994;SDS011;8614;48.522;9.206;2023-01-16T19:02:07;10.10;;;9.43;;